Time;durP1;ratioP1;P1;durP2;ratioP2;P2;SDS_P1;SDS_P2;PMS_P1;PMS_P2;Temp;Humidity;BMP_temperature;BMP_pressure;BME280_temperature;BME280_humidity;BME280_pressure;Samples;Min_cycle;Max_cycle;Signal;HPM_P1;HPM_P2
2023/04/07 00:05:06;;;;;;;19.83;17.63;;;;;;;5.84;100.00;100095.53;5051518;28;20679;-64
2023/04/07 00:07:32;;;;;;;22.37;19.97;;;;;;;5.87;100.00;100103.91;5043177;28;20295;-63
2023/04/07 00:09:57;;;;;;;24.20;20.10;;;;;;;5.85;100.00;100102.31;5040414;28;20306;-63
2023/04/07 00:12:22;;;;;;;22.73;20.33;;;;;;;5.92;100.00;100098.66;5047705;28;20275;-65
2023/04/07 00:14:47;;;;;;;23.00;19.30;;;;;;;5.98;100.00;100101.84;5041185;28;20662;-65
2023/04/07 00:17:13;;;;;;;23.53;21.03;;;;;;;6.02;100.00;100096.66;5052358;28;20267;-65
2023/04/07 00:19:38;;;;;;;23.73;21.03;;;;;;;5.95;100.00;100091.72;5038458;28;20643;-64
2023/04/07 00:22:03;;;;;;;27.77;23.27;;;;;;;5.90;100.00;100088.47;5047179;28;20335;-63
2023/04/07 00:24:29;;;;;;;24.83;22.07;;;;;;;5.82;100.00;100090.50;5044985;28;20185;-63
2023/04/07 00:26:55;;;;;;;26.77;22.77;;;;;;;5.95;100.00;100081.50;5038448;28;20203;-63
2023/04/07 00:29:20;;;;;;;25.17;22.43;;;;;;;6.02;100.00;100074.50;5045174;28;20188;-63
2023/04/07 00:31:46;;;;;;;27.83;23.93;;;;;;;5.97;100.00;100077.16;5046841;28;20247;-64
2023/04/07 00:34:11;;;;;;;26.83;23.83;;;;;;;5.88;100.00;100074.94;5047304;28;20254;-64
2023/04/07 00:36:36;;;;;;;27.10;22.17;;;;;;;5.87;100.00;100072.47;5052230;28;20599;-64
2023/04/07 00:39:01;;;;;;;26.63;22.27;;;;;;;5.82;100.00;100068.34;5046251;28;20228;-64
2023/04/07 00:41:27;;;;;;;25.10;22.47;;;;;;;5.87;100.00;100067.34;5051430;28;20698;-65
2023/04/07 00:43:52;;;;;;;26.70;23.83;;;;;;;5.79;100.00;100067.59;5048187;28;20185;-63
2023/04/07 00:46:22;;;;;;;28.83;25.00;;;;;;;5.85;100.00;100056.34;5050164;28;20236;-63
2023/04/07 00:48:48;;;;;;;30.57;25.23;;;;;;;5.85;100.00;100052.06;5041043;28;20587;-61
2023/04/07 00:51:14;;;;;;;30.37;24.30;;;;;;;5.86;100.00;100050.38;5049036;28;20251;-66
2023/04/07 00:53:39;;;;;;;27.43;24.20;;;;;;;5.85;100.00;100051.25;5047390;28;20186;-65
2023/04/07 00:56:05;;;;;;;27.83;24.50;;;;;;;5.89;100.00;100047.69;5049434;28;20179;-65
2023/04/07 00:58:30;;;;;;;27.53;22.77;;;;;;;5.95;100.00;100047.47;5046464;28;20242;-65
2023/04/07 01:01:08;;;;;;;27.07;23.93;;;;;;;5.95;100.00;100047.47;5046659;28;20737;-66
2023/04/07 01:03:42;;;;;;;27.80;22.63;;;;;;;6.03;100.00;100040.41;5054295;28;20185;-64
2023/04/07 01:06:12;;;;;;;25.13;22.33;;;;;;;5.87;100.00;100045.19;5048128;28;20200;-64
2023/04/07 01:09:05;;;;;;;23.87;21.37;;;;;;;5.80;100.00;100038.66;5047123;28;20185;-63
2023/04/07 01:11:41;;;;;;;22.83;20.40;;;;;;;5.77;100.00;100037.03;5045258;28;20208;-64
2023/04/07 01:14:09;;;;;;;23.90;21.40;;;;;;;5.83;100.00;100023.22;5052325;28;20212;-65
2023/04/07 01:16:42;;;;;;;23.23;20.73;;;;;;;5.93;100.00;100024.56;5051051;28;20375;-65
2023/04/07 01:19:15;;;;;;;23.93;21.37;;;;;;;6.03;100.00;100024.22;5060101;28;20235;-66
2023/04/07 01:21:45;;;;;;;22.83;20.40;;;;;;;6.10;100.00;100026.53;5069685;28;20717;-66
2023/04/07 01:24:19;;;;;;;25.40;21.77;;;;;;;6.12;100.00;100019.63;5064751;28;20274;-65
2023/04/07 01:26:46;;;;;;;21.43;19.13;;;;;;;6.16;100.00;100019.53;5064560;28;20200;-66
2023/04/07 01:29:30;;;;;;;26.10;22.13;;;;;;;6.13;100.00;100016.19;5045375;28;20622;-66
2023/04/07 01:31:58;;;;;;;26.03;20.73;;;;;;;6.08;100.00;100012.97;5055958;28;20218;-64
2023/04/07 01:34:27;;;;;;;22.40;19.87;;;;;;;6.01;100.00;100005.59;5051708;28;20265;-65
2023/04/07 01:36:54;;;;;;;24.47;19.07;;;;;;;6.00;100.00;100002.19;5064794;28;20218;-65
2023/04/07 01:39:21;;;;;;;23.97;19.93;;;;;;;5.96;100.00;99998.06;5059203;28;20263;-65
2023/04/07 01:41:48;;;;;;;23.77;21.33;;;;;;;6.02;100.00;100000.44;5059992;28;20314;-66
2023/04/07 01:44:14;;;;;;;24.33;20.47;;;;;;;5.97;100.00;100002.31;5053493;28;20203;-65
2023/04/07 01:46:39;;;;;;;22.67;20.30;;;;;;;6.01;100.00;100001.31;5051884;28;20666;-65
2023/04/07 01:49:06;;;;;;;24.20;20.57;;;;;;;5.96;100.00;99998.91;5051396;28;20181;-63
2023/04/07 01:51:33;;;;;;;25.37;21.40;;;;;;;5.89;100.00;99997.47;5052323;28;20300;-65
2023/04/07 01:54:00;;;;;;;25.07;20.20;;;;;;;5.97;100.00;100002.31;5055714;28;20180;-64
2023/04/07 01:56:25;;;;;;;24.80;22.20;;;;;;;6.07;100.00;99995.97;5051291;28;20196;-64
2023/04/07 01:58:51;;;;;;;22.73;20.33;;;;;;;6.13;100.00;99995.75;5051301;28;20169;-63
2023/04/07 02:01:16;;;;;;;22.83;20.43;;;;;;;6.01;100.00;99996.22;5051035;28;20231;-63
2023/04/07 02:04:11;;;;;;;21.90;19.60;;;;;;;5.95;100.00;99991.31;5056774;28;20624;-64
2023/04/07 02:06:42;;;;;;;23.60;21.03;;;;;;;6.04;100.00;99988.44;5051389;28;20215;-64
2023/04/07 02:09:11;;;;;;;25.17;22.40;;;;;;;5.91;100.00;99993.13;5050811;28;20690;-64
2023/04/07 02:11:40;;;;;;;24.50;21.67;;;;;;;5.84;100.00;99988.31;5053299;28;20220;-63
2023/04/07 02:14:07;;;;;;;23.77;20.73;;;;;;;5.94;100.00;99984.53;5062776;28;20180;-63
2023/04/07 02:16:35;;;;;;;22.93;20.57;;;;;;;6.03;100.00;99980.81;5046397;28;20217;-63
2023/04/07 02:19:02;;;;;;;24.37;20.60;;;;;;;5.95;100.00;99983.63;5054316;28;20267;-63
2023/04/07 02:21:29;;;;;;;24.30;21.63;;;;;;;5.84;100.00;99978.91;5056661;28;20740;-63
2023/04/07 02:23:55;;;;;;;23.37;20.50;;;;;;;5.96;100.00;99986.13;5069791;28;20183;-63
2023/04/07 02:26:20;;;;;;;23.97;21.43;;;;;;;5.97;100.00;99980.13;5070660;28;20616;-65
2023/04/07 02:28:45;;;;;;;24.63;21.63;;;;;;;6.17;100.00;99982.88;5071073;28;20265;-65
2023/04/07 02:31:12;;;;;;;24.50;21.87;;;;;;;5.91;100.00;99982.09;5073305;28;20211;-64
2023/04/07 02:33:38;;;;;;;25.57;21.07;;;;;;;5.86;100.00;99974.59;5071453;28;20292;-63
2023/04/07 02:36:03;;;;;;;25.33;20.83;;;;;;;5.97;100.00;99967.38;5070673;28;20270;-64
2023/04/07 02:38:28;;;;;;;25.00;22.27;;;;;;;5.97;100.00;99975.03;5074497;28;20165;-63
2023/04/07 02:40:54;;;;;;;25.60;21.63;;;;;;;6.05;100.00;99979.88;5054736;28;20220;-64
2023/04/07 02:43:20;;;;;;;29.77;22.80;;;;;;;6.11;100.00;99966.06;5063902;28;20504;-64
2023/04/07 02:45:45;;;;;;;24.93;21.57;;;;;;;6.07;100.00;99974.72;5056834;28;20228;-64
2023/04/07 02:48:10;;;;;;;23.87;20.67;;;;;;;6.03;100.00;99976.56;5074407;28;20207;-64
2023/04/07 02:50:35;;;;;;;24.37;21.63;;;;;;;6.07;100.00;99977.28;5067171;28;20285;-64
2023/04/07 02:53:01;;;;;;;24.90;21.90;;;;;;;5.96;100.00;99981.03;5085551;28;20182;-64
2023/04/07 02:55:26;;;;;;;28.53;22.67;;;;;;;5.98;100.00;99974.19;5058156;28;20669;-63
2023/04/07 02:57:51;;;;;;;26.60;22.43;;;;;;;5.92;100.00;99971.81;5063432;28;20183;-64
2023/04/07 03:00:17;;;;;;;27.10;23.17;;;;;;;5.94;100.00;99972.59;5054379;28;20183;-64
2023/04/07 03:02:42;;;;;;;26.73;23.73;;;;;;;5.84;100.00;99971.25;5088903;28;20592;-64
2023/04/07 03:05:08;;;;;;;27.13;24.17;;;;;;;5.87;100.00;99968.63;5058756;28;20192;-64
2023/04/07 03:07:33;;;;;;;24.17;21.57;;;;;;;5.67;100.00;99964.25;5054273;28;20206;-64
2023/04/07 03:09:58;;;;;;;25.40;22.70;;;;;;;5.81;100.00;99969.66;5054168;28;20209;-65
2023/04/07 03:12:23;;;;;;;25.37;22.67;;;;;;;5.79;100.00;99962.94;5059655;28;20331;-65
2023/04/07 03:14:49;;;;;;;26.73;22.70;;;;;;;5.79;100.00;99961.25;5053149;28;20336;-64
2023/04/07 03:17:14;;;;;;;26.93;24.03;;;;;;;5.97;100.00;99954.59;5076253;28;20702;-64
2023/04/07 03:19:39;;;;;;;25.07;22.43;;;;;;;6.03;100.00;99956.13;5066755;28;20644;-65
2023/04/07 03:22:05;;;;;;;25.10;22.40;;;;;;;6.08;100.00;99959.34;5078786;28;20221;-64
2023/04/07 03:24:30;;;;;;;24.50;21.87;;;;;;;5.90;100.00;99954.91;5073792;28;20184;-65
2023/04/07 03:26:56;;;;;;;25.67;22.10;;;;;;;5.96;100.00;99954.66;5073040;28;20227;-64
2023/04/07 03:29:21;;;;;;;25.90;22.70;;;;;;;6.01;100.00;99950.25;5073256;28;20184;-65
2023/04/07 03:31:46;;;;;;;24.87;21.67;;;;;;;6.04;100.00;99949.28;5040231;28;20218;-65
2023/04/07 03:34:12;;;;;;;24.93;22.17;;;;;;;6.10;100.00;99949.91;5065921;28;20180;-65
2023/04/07 03:36:37;;;;;;;26.33;23.03;;;;;;;6.07;100.00;99947.47;5059773;28;20212;-65
2023/04/07 03:39:02;;;;;;;25.00;22.40;;;;;;;6.18;100.00;99938.53;5071686;28;20250;-65
2023/04/07 03:41:28;;;;;;;28.50;23.23;;;;;;;6.18;100.00;99946.22;5060506;28;20641;-66
2023/04/07 03:43:53;;;;;;;25.77;22.97;;;;;;;6.17;100.00;99949.69;5067541;28;20188;-65
2023/04/07 03:46:20;;;;;;;25.43;22.27;;;;;;;6.14;100.00;99941.22;5070158;28;20232;-65
2023/04/07 03:48:46;;;;;;;24.13;21.53;;;;;;;6.17;100.00;99947.94;5071173;28;20200;-66
2023/04/07 03:51:11;;;;;;;24.97;22.23;;;;;;;6.29;100.00;99941.53;5071354;28;20247;-65
2023/04/07 03:53:36;;;;;;;28.50;22.73;;;;;;;6.24;100.00;99945.97;5079607;28;20577;-66
2023/04/07 03:56:02;;;;;;;26.90;22.70;;;;;;;6.34;100.00;99943.88;5072380;28;20180;-65
2023/04/07 03:58:27;;;;;;;25.83;21.63;;;;;;;6.36;100.00;99942.13;5068817;28;20172;-65
2023/04/07 04:00:53;;;;;;;24.37;21.77;;;;;;;6.39;100.00;99942.00;5067184;28;20256;-65
2023/04/07 04:03:18;;;;;;;24.97;22.07;;;;;;;6.42;100.00;99932.47;5081005;28;20182;-65
2023/04/07 04:05:43;;;;;;;26.07;22.67;;;;;;;6.37;100.00;99936.94;5070245;28;20184;-66
2023/04/07 04:08:08;;;;;;;29.70;23.57;;;;;;;6.45;100.00;99936.66;5071749;28;20204;-66
2023/04/07 04:10:34;;;;;;;24.90;22.23;;;;;;;6.36;100.00;99935.28;5056901;28;20270;-66
2023/04/07 04:12:59;;;;;;;25.37;22.60;;;;;;;6.41;100.00;99925.72;5070724;28;20650;-66
2023/04/07 04:15:25;;;;;;;27.37;24.27;;;;;;;6.27;100.00;99933.91;5068119;28;20554;-66
2023/04/07 04:17:50;;;;;;;28.30;24.47;;;;;;;6.17;100.00;99934.34;5068912;28;20203;-66
2023/04/07 04:20:16;;;;;;;25.37;22.47;;;;;;;6.03;100.00;99933.16;5044945;28;20536;-66
2023/04/07 04:22:41;;;;;;;27.90;23.73;;;;;;;6.11;100.00;99927.75;5084035;28;20234;-66
2023/04/07 04:25:07;;;;;;;25.07;22.10;;;;;;;5.94;100.00;99931.75;5067097;28;20177;-66
2023/04/07 04:27:32;;;;;;;25.40;22.73;;;;;;;6.10;100.00;99924.38;5069334;28;20650;-66
2023/04/07 04:29:57;;;;;;;30.23;22.67;;;;;;;6.23;100.00;99924.72;5067670;28;20189;-66
2023/04/07 04:32:23;;;;;;;26.83;22.63;;;;;;;6.39;100.00;99931.78;5042469;28;20261;-66
2023/04/07 04:34:48;;;;;;;28.70;24.37;;;;;;;6.27;100.00;99928.81;5053636;28;20604;-66
2023/04/07 04:37:13;;;;;;;30.13;24.57;;;;;;;6.23;100.00;99931.56;5051357;28;20177;-66
2023/04/07 04:39:39;;;;;;;27.03;24.27;;;;;;;6.23;100.00;99934.94;5052120;28;20667;-67
2023/04/07 04:42:04;;;;;;;26.37;22.83;;;;;;;6.15;100.00;99942.06;5058236;28;20230;-66
2023/04/07 04:44:30;;;;;;;26.40;23.60;;;;;;;6.23;100.00;99942.59;5052955;28;20180;-67
2023/04/07 04:46:55;;;;;;;26.63;23.67;;;;;;;6.13;100.00;99939.56;5053034;28;20319;-66
2023/04/07 04:49:21;;;;;;;28.43;24.97;;;;;;;6.23;100.00;99936.66;5053158;28;20181;-67
2023/04/07 04:51:46;;;;;;;28.93;24.90;;;;;;;6.15;100.00;99942.06;5055541;28;20225;-67
2023/04/07 04:54:12;;;;;;;26.80;23.67;;;;;;;6.11;100.00;99948.19;5056061;28;20174;-67
2023/04/07 04:56:37;;;;;;;27.83;23.93;;;;;;;5.97;100.00;99949.50;5052945;28;20193;-67
2023/04/07 04:59:03;;;;;;;27.13;24.10;;;;;;;6.03;100.00;99950.19;5052673;28;20264;-67
2023/04/07 05:01:29;;;;;;;29.73;25.23;;;;;;;6.16;100.00;99948.00;5041486;28;20596;-67
2023/04/07 05:03:54;;;;;;;26.30;23.47;;;;;;;6.12;100.00;99957.50;5054135;28;20220;-67
2023/04/07 05:06:20;;;;;;;28.73;24.20;;;;;;;6.22;100.00;99956.25;5053539;28;20211;-67
2023/04/07 05:08:45;;;;;;;27.10;23.40;;;;;;;6.27;100.00;99958.63;5053354;28;20177;-66
2023/04/07 05:11:11;;;;;;;25.67;22.97;;;;;;;6.29;100.00;99951.75;5051752;28;20239;-66
2023/04/07 05:13:36;;;;;;;27.33;24.43;;;;;;;6.32;100.00;99953.34;5060950;28;20188;-67
2023/04/07 05:16:01;;;;;;;25.97;23.17;;;;;;;6.22;100.00;99951.16;5053276;28;20667;-67
2023/04/07 05:18:27;;;;;;;24.70;21.90;;;;;;;6.41;100.00;99955.53;5052429;28;20181;-68
2023/04/07 05:20:52;;;;;;;26.37;23.43;;;;;;;6.52;100.00;99945.72;5051789;28;20236;-67
2023/04/07 05:23:17;;;;;;;25.43;22.70;;;;;;;6.54;100.00;99950.78;5046801;28;20184;-66
2023/04/07 05:25:42;;;;;;;25.17;22.57;;;;;;;6.55;100.00;99950.72;5052572;28;20192;-66
2023/04/07 05:28:08;;;;;;;26.07;23.37;;;;;;;6.57;100.00;99954.06;5053472;28;20239;-67
2023/04/07 05:30:33;;;;;;;26.70;23.73;;;;;;;6.40;100.00;99954.72;5045681;28;20239;-67
2023/04/07 05:32:58;;;;;;;26.50;22.30;;;;;;;6.50;100.00;99950.06;5068259;28;20204;-67
2023/04/07 05:35:24;;;;;;;28.73;24.03;;;;;;;6.55;100.00;99954.97;5071580;28;20251;-67
2023/04/07 05:37:49;;;;;;;27.23;23.40;;;;;;;6.65;100.00;99951.19;5070703;28;20176;-67
2023/04/07 05:40:14;;;;;;;24.90;22.40;;;;;;;6.79;100.00;99950.59;5062403;28;20585;-67
2023/04/07 05:42:40;;;;;;;23.77;21.27;;;;;;;6.73;100.00;99949.13;5071496;28;21013;-67
2023/04/07 05:45:07;;;;;;;25.33;22.00;;;;;;;6.86;100.00;99946.91;5071512;28;20186;-68
2023/04/07 05:47:32;;;;;;;25.47;22.53;;;;;;;6.85;100.00;99952.91;5070704;28;20228;-66
2023/04/07 05:49:57;;;;;;;25.30;22.40;;;;;;;6.82;100.00;99952.19;5070627;28;20264;-66
2023/04/07 05:52:23;;;;;;;24.47;21.77;;;;;;;6.92;100.00;99948.34;5075438;28;20220;-67
2023/04/07 05:54:48;;;;;;;23.87;21.37;;;;;;;6.80;100.00;99949.72;5070943;28;20173;-67
2023/04/07 05:57:13;;;;;;;24.13;21.67;;;;;;;7.02;100.00;99944.53;5068906;28;20187;-67
2023/04/07 05:59:39;;;;;;;24.03;21.57;;;;;;;6.95;100.00;99946.50;5070896;28;20191;-66
2023/04/07 06:02:04;;;;;;;24.13;21.50;;;;;;;6.99;100.00;99946.41;5076514;28;20714;-67
2023/04/07 06:04:29;;;;;;;24.20;20.47;;;;;;;7.09;100.00;99955.31;5075083;28;20507;-67
2023/04/07 06:06:55;;;;;;;23.73;21.43;;;;;;;7.18;100.00;99960.06;5074553;28;20215;-67
2023/04/07 06:09:21;;;;;;;22.57;20.37;;;;;;;7.20;100.00;99950.59;5072771;28;20631;-67
2023/04/07 06:11:46;;;;;;;23.47;20.97;;;;;;;7.24;100.00;99951.28;5077161;28;20219;-67
2023/04/07 06:14:12;;;;;;;23.27;20.93;;;;;;;7.18;100.00;99952.41;5073211;28;20184;-68
2023/04/07 06:16:37;;;;;;;22.40;20.00;;;;;;;7.19;100.00;99948.91;5073893;28;20204;-68
2023/04/07 06:19:02;;;;;;;23.03;20.73;;;;;;;7.20;100.00;99958.25;5071946;28;20211;-68
2023/04/07 06:21:27;;;;;;;22.53;20.27;;;;;;;7.20;100.00;99960.00;5073966;28;20303;-67
2023/04/07 06:23:53;;;;;;;22.27;20.17;;;;;;;7.26;100.00;99958.00;5079254;28;20204;-67
2023/04/07 06:26:18;;;;;;;22.93;20.53;;;;;;;7.33;100.00;99961.13;5071804;28;20184;-68
2023/04/07 06:28:43;;;;;;;23.10;20.80;;;;;;;7.30;100.00;99960.44;5073989;28;20234;-69
2023/04/07 06:31:09;;;;;;;22.43;20.00;;;;;;;7.40;100.00;99962.50;5071992;28;20222;-68
2023/04/07 06:33:35;;;;;;;22.50;19.70;;;;;;;7.54;100.00;99959.38;5081337;28;20180;-68
2023/04/07 06:36:00;;;;;;;28.90;20.90;;;;;;;7.61;100.00;99956.53;5073141;28;20177;-68
2023/04/07 06:38:25;;;;;;;25.80;20.90;;;;;;;7.40;100.00;99957.38;5065432;28;20181;-69
2023/04/07 06:40:51;;;;;;;24.43;21.87;;;;;;;7.38;100.00;99960.91;5050202;28;20269;-68
2023/04/07 06:43:16;;;;;;;23.70;20.60;;;;;;;7.48;100.00;99958.78;5050469;28;20693;-68
2023/04/07 06:45:41;;;;;;;22.43;20.13;;;;;;;7.58;100.00;99966.00;5050840;28;20225;-68
2023/04/07 06:48:07;;;;;;;22.90;20.27;;;;;;;7.75;100.00;99962.69;5055099;28;20683;-68
2023/04/07 06:50:32;;;;;;;21.80;19.53;;;;;;;7.87;100.00;99960.47;5047925;28;20245;-68
2023/04/07 06:52:57;;;;;;;22.93;20.47;;;;;;;8.11;100.00;99963.63;5050235;28;20227;-68
2023/04/07 06:55:22;;;;;;;24.30;21.83;;;;;;;8.24;100.00;99964.72;5049220;28;20193;-68
2023/04/07 06:57:51;;;;;;;22.27;19.90;;;;;;;8.34;100.00;99962.56;5054642;28;20532;-68
2023/04/07 07:00:17;;;;;;;20.10;18.00;;;;;;;8.44;100.00;99959.56;5033892;28;20304;-68
2023/04/07 07:02:42;;;;;;;20.37;18.37;;;;;;;8.20;100.00;99959.84;5068058;28;20264;-68
2023/04/07 07:05:07;;;;;;;19.90;17.90;;;;;;;8.37;100.00;99957.28;5051732;28;20182;-68
2023/04/07 07:07:32;;;;;;;20.87;18.77;;;;;;;8.53;100.00;99960.00;5054140;28;20208;-67
2023/04/07 07:09:58;;;;;;;21.73;19.50;;;;;;;8.76;100.00;99955.47;5054033;28;20185;-67
2023/04/07 07:12:23;;;;;;;20.97;18.33;;;;;;;8.87;100.00;99954.94;5061829;28;20235;-68
2023/04/07 07:14:48;;;;;;;18.40;16.67;;;;;;;9.03;100.00;99960.13;5062735;28;20173;-68
2023/04/07 07:17:13;;;;;;;19.13;17.17;;;;;;;8.78;100.00;99960.50;5043977;28;20256;-67
2023/04/07 07:19:39;;;;;;;19.97;17.87;;;;;;;8.91;100.00;99959.00;5050599;28;20181;-67
2023/04/07 07:22:04;;;;;;;20.30;18.20;;;;;;;9.03;100.00;99960.13;5074415;28;20216;-67
2023/04/07 07:24:32;;;;;;;20.73;18.73;;;;;;;8.77;100.00;99954.56;5058994;28;20301;-67
2023/04/07 07:26:58;;;;;;;19.30;17.40;;;;;;;8.91;100.00;99959.00;5054170;28;20250;-67
2023/04/07 07:29:23;;;;;;;19.80;17.27;;;;;;;8.88;100.00;99962.56;5061746;28;20188;-67
2023/04/07 07:31:49;;;;;;;19.13;17.13;;;;;;;8.83;100.00;99961.09;5041721;28;20216;-67
2023/04/07 07:34:14;;;;;;;18.23;16.13;;;;;;;9.00;100.00;99962.84;5059679;28;20208;-67
2023/04/07 07:36:39;;;;;;;19.27;17.27;;;;;;;8.93;100.00;99969.19;5053850;28;20174;-67
2023/04/07 07:39:06;;;;;;;18.27;16.47;;;;;;;8.64;100.00;99969.69;5053980;28;20190;-67
2023/04/07 07:41:31;;;;;;;18.80;16.90;;;;;;;8.71;100.00;99965.94;5052877;28;20404;-68
2023/04/07 07:43:56;;;;;;;18.17;16.47;;;;;;;8.81;100.00;99974.00;5064358;28;20265;-68
2023/04/07 07:46:24;;;;;;;19.13;17.23;;;;;;;9.07;100.00;99973.63;5064988;28;20267;-69
2023/04/07 07:48:50;;;;;;;20.13;18.13;;;;;;;8.95;100.00;99980.22;5051557;28;20188;-68
2023/04/07 07:51:15;;;;;;;19.40;17.50;;;;;;;8.88;100.00;99974.53;5063866;28;20232;-67
2023/04/07 07:53:40;;;;;;;19.37;17.37;;;;;;;8.98;100.00;99978.31;5073983;28;20207;-67
2023/04/07 07:56:05;;;;;;;17.67;15.93;;;;;;;8.91;100.00;99984.66;5061713;28;20264;-66
2023/04/07 07:58:31;;;;;;;18.73;16.57;;;;;;;8.88;100.00;99983.06;5061306;28;20239;-67
2023/04/07 08:00:56;;;;;;;19.43;16.80;;;;;;;9.10;100.00;99984.56;5054915;28;20796;-67
2023/04/07 08:03:21;;;;;;;17.63;15.93;;;;;;;8.94;100.00;99991.38;5077246;28;20177;-68
2023/04/07 08:05:48;;;;;;;18.50;16.60;;;;;;;8.88;100.00;99992.50;5064946;28;20189;-68
2023/04/07 08:08:13;;;;;;;18.83;17.10;;;;;;;8.94;100.00;99994.75;5069182;28;20196;-68
2023/04/07 08:10:38;;;;;;;19.00;17.07;;;;;;;9.11;100.00;100001.63;5060202;28;20215;-68
2023/04/07 08:13:04;;;;;;;19.27;17.47;;;;;;;9.26;100.00;100000.00;5076398;28;20198;-66
2023/04/07 08:15:29;;;;;;;18.77;16.87;;;;;;;9.10;100.00;99997.38;5061447;28;20182;-68
2023/04/07 08:17:55;;;;;;;19.93;18.03;;;;;;;9.27;100.00;100000.88;5056748;28;20201;-68
2023/04/07 08:20:20;;;;;;;19.80;17.83;;;;;;;9.54;100.00;100006.31;5042646;28;20174;-66
2023/04/07 08:22:45;;;;;;;18.83;15.90;;;;;;;9.84;100.00;100000.47;5062830;28;20185;-68
2023/04/07 08:25:11;;;;;;;19.00;17.20;;;;;;;9.62;100.00;100001.59;5066201;28;20185;-66
2023/04/07 08:27:36;;;;;;;17.50;15.77;;;;;;;9.41;100.00;100007.84;5047278;28;20209;-67
2023/04/07 08:30:05;;;;;;;17.80;15.93;;;;;;;9.50;100.00;100007.38;5046501;28;20188;-67
2023/04/07 08:32:35;;;;;;;18.07;16.20;;;;;;;9.49;100.00;100005.72;5063214;28;20553;-67
2023/04/07 08:35:01;;;;;;;17.47;15.77;;;;;;;9.63;100.00;100005.81;5049910;28;20256;-67
2023/04/07 08:37:26;;;;;;;16.77;15.17;;;;;;;10.05;100.00;100002.78;5048330;28;20261;-66
2023/04/07 08:39:51;;;;;;;20.33;18.33;;;;;;;10.27;100.00;100003.31;5048081;28;20178;-67
2023/04/07 08:42:19;;;;;;;16.40;14.93;;;;;;;10.58;100.00;99999.06;5053121;28;20225;-65
2023/04/07 08:44:47;;;;;;;18.37;16.57;;;;;;;10.48;100.00;100005.63;5052597;28;20186;-65
2023/04/07 08:47:15;;;;;;;18.13;16.53;;;;;;;10.39;100.00;99999.25;5041797;28;20677;-67
2023/04/07 08:49:43;;;;;;;18.10;16.40;;;;;;;10.31;100.00;100003.97;5039572;28;20632;-67
2023/04/07 08:52:13;;;;;;;17.00;15.23;;;;;;;10.11;100.00;100000.75;5047189;28;20229;-68
2023/04/07 08:54:39;;;;;;;16.87;15.27;;;;;;;10.27;100.00;100011.03;5042357;28;20641;-68
2023/04/07 08:57:06;;;;;;;17.40;15.80;;;;;;;10.58;100.00;100008.50;5051247;28;20279;-68
2023/04/07 08:59:33;;;;;;;17.67;16.07;;;;;;;11.09;100.00;100003.88;5048679;28;20181;-69
2023/04/07 09:01:59;;;;;;;16.53;14.93;;;;;;;11.41;100.00;100002.91;5056668;28;20342;-68
2023/04/07 09:04:26;;;;;;;14.07;12.77;;;;;;;11.84;100.00;100013.19;5048038;28;20192;-68
2023/04/07 09:06:51;;;;;;;13.57;12.27;;;;;;;11.74;100.00;100015.50;5048916;28;20205;-68
2023/04/07 09:09:17;;;;;;;14.03;12.83;;;;;;;11.66;100.00;100012.56;5049234;28;20204;-68
2023/04/07 09:11:42;;;;;;;15.30;13.93;;;;;;;11.72;100.00;100013.94;5047050;28;20236;-69
2023/04/07 09:14:08;;;;;;;14.90;13.47;;;;;;;11.75;100.00;100011.19;5050436;28;20698;-69
2023/04/07 09:16:34;;;;;;;15.23;13.63;;;;;;;11.76;100.00;100012.84;5042467;28;20209;-68
2023/04/07 09:18:59;;;;;;;14.97;13.57;;;;;;;11.96;100.00;100009.06;5055259;28;20177;-68
2023/04/07 09:21:26;;;;;;;13.30;12.00;;;;;;;11.79;100.00;100016.06;5044772;28;20278;-67
2023/04/07 09:23:51;;;;;;;13.37;12.07;;;;;;;11.97;100.00;100015.03;5052603;28;20173;-69
2023/04/07 09:26:16;;;;;;;13.40;12.30;;;;;;;11.92;100.00;100015.28;5046454;28;20299;-68
2023/04/07 09:28:46;;;;;;;14.23;12.90;;;;;;;12.10;100.00;100019.34;5045645;28;20178;-69
2023/04/07 09:31:11;;;;;;;12.80;11.60;;;;;;;11.64;100.00;100022.13;5047444;28;20282;-69
2023/04/07 09:33:37;;;;;;;12.20;11.10;;;;;;;11.28;100.00;100024.22;5046651;28;20206;-65
2023/04/07 09:36:05;;;;;;;11.87;10.77;;;;;;;11.06;100.00;100027.22;5036619;28;20243;-67
2023/04/07 09:38:38;;;;;;;11.23;10.13;;;;;;;10.95;100.00;100021.88;5049732;28;20637;-65
2023/04/07 09:41:07;;;;;;;10.83;9.83;;;;;;;10.69;100.00;100023.34;5040474;28;20244;-69
2023/04/07 09:43:35;;;;;;;11.13;10.07;;;;;;;10.25;100.00;100024.88;5055575;28;20193;-69
2023/04/07 09:46:11;;;;;;;13.80;12.50;;;;;;;10.15;100.00;100030.50;5044281;28;20217;-68
2023/04/07 09:48:38;;;;;;;11.87;10.77;;;;;;;10.71;100.00;100029.25;5049995;28;20200;-66
2023/04/07 09:51:12;;;;;;;12.97;11.77;;;;;;;11.29;100.00;100031.03;5042425;28;20220;-70
2023/04/07 09:53:51;;;;;;;12.77;11.57;;;;;;;11.66;100.00;100024.63;5052030;28;20182;-60
2023/04/07 09:56:21;;;;;;;12.90;11.80;;;;;;;11.89;100.00;100034.34;5042701;28;20173;-68
2023/04/07 09:58:47;;;;;;;11.57;10.57;;;;;;;12.13;100.00;100023.50;5045821;28;20185;-66
2023/04/07 10:01:15;;;;;;;11.97;10.77;;;;;;;11.72;100.00;100027.66;5033672;28;20520;-68
2023/04/07 10:03:42;;;;;;;12.17;11.07;;;;;;;11.52;100.00;100034.00;5053798;28;20195;-65
2023/04/07 10:06:07;;;;;;;11.57;10.57;;;;;;;11.41;100.00;100028.66;5061766;28;20207;-65
2023/04/07 10:08:36;;;;;;;11.43;10.37;;;;;;;11.49;100.00;100036.75;5047417;28;20696;-66
2023/04/07 10:11:02;;;;;;;11.53;10.37;;;;;;;11.55;100.00;100030.44;5040342;28;20228;-67
2023/04/07 10:13:29;;;;;;;10.77;9.60;;;;;;;11.54;100.00;100031.34;5046789;28;20181;-67
2023/04/07 10:15:56;;;;;;;9.53;8.73;;;;;;;11.30;100.00;100037.84;5047136;28;20610;-65
2023/04/07 10:18:25;;;;;;;8.40;7.60;;;;;;;11.25;100.00;100042.44;5047774;28;20174;-67
2023/04/07 10:20:52;;;;;;;8.10;7.30;;;;;;;11.39;100.00;100041.63;5038351;28;20225;-67
2023/04/07 10:23:24;;;;;;;9.13;7.80;;;;;;;11.35;100.00;100039.31;5054728;28;20187;-66
2023/04/07 10:25:51;;;;;;;8.80;7.90;;;;;;;11.37;100.00;100043.47;5048585;28;20501;-69
2023/04/07 10:28:19;;;;;;;8.00;7.30;;;;;;;11.30;100.00;100048.16;5060203;28;20208;-67
2023/04/07 10:30:47;;;;;;;9.00;8.10;;;;;;;11.34;100.00;100047.94;5038524;28;20711;-67
2023/04/07 10:33:12;;;;;;;8.73;7.67;;;;;;;11.03;100.00;100053.16;5032852;28;20621;-68
2023/04/07 10:36:01;;;;;;;9.03;8.13;;;;;;;10.95;100.00;100047.59;5042090;28;20184;-68
2023/04/07 10:38:28;;;;;;;8.00;7.30;;;;;;;10.33;100.00;100056.97;5045380;28;20299;-69
2023/04/07 10:40:53;;;;;;;6.53;5.93;;;;;;;10.34;100.00;100063.78;5034154;28;20229;-67
2023/04/07 10:43:40;;;;;;;6.13;5.63;;;;;;;10.40;100.00;100061.81;5054370;28;20557;-67
2023/04/07 10:46:05;;;;;;;7.97;6.13;;;;;;;10.51;100.00;100064.63;5046773;28;20248;-69
2023/04/07 10:48:32;;;;;;;6.90;5.60;;;;;;;10.57;100.00;100060.88;5047800;28;20245;-68
2023/04/07 10:51:03;;;;;;;6.33;5.73;;;;;;;10.85;100.00;100059.34;5042131;28;20224;-68
2023/04/07 10:53:28;;;;;;;6.23;5.73;;;;;;;11.25;100.00;100057.03;5048451;28;20185;-69
2023/04/07 10:55:55;;;;;;;6.53;5.90;;;;;;;11.30;100.00;100060.22;5052595;28;20557;-70
2023/04/07 10:58:27;;;;;;;6.87;6.13;;;;;;;11.73;100.00;100059.41;5054609;28;20256;-70
2023/04/07 11:00:55;;;;;;;6.27;5.77;;;;;;;12.10;100.00;100063.16;5031527;28;20225;-71
2023/04/07 11:03:21;;;;;;;5.30;4.80;;;;;;;12.07;100.00;100067.72;5053443;28;20165;-66
2023/04/07 11:05:46;;;;;;;5.13;4.70;;;;;;;11.67;100.00;100067.50;5046380;28;20246;-70
2023/04/07 11:08:12;;;;;;;5.70;5.20;;;;;;;11.40;100.00;100063.91;5044270;28;20559;-69
2023/04/07 11:10:37;;;;;;;5.10;4.70;;;;;;;11.25;100.00;100068.19;5041200;28;20232;-69
2023/04/07 11:13:06;;;;;;;5.47;4.97;;;;;;;11.53;100.00;100061.41;5060869;28;20208;-70
2023/04/07 11:15:34;;;;;;;5.80;5.30;;;;;;;11.57;100.00;100067.22;5041441;28;20255;-70